This is the latest recevied weather packets stored in our database for station/object DJ2KUA-6. If no packets are shown the sender has not sent any weather packets the latest 1 day(s).
| Time | Temp. | Humidity | Pressure | Rain* | Wind** | Luminosity | Snow |
|---|---|---|---|---|---|---|---|
| 1836274403 | 13.89° C | 85% | 1072 hPa | 0 mm | 0 m/s | - | - |
| 1778019415 | 13.33° C | 87% | 1060 hPa | 0 mm | 0 m/s | - | - |
| 1778018275 | 13.33° C | 87% | 1060 hPa | 0 mm | 0 m/s | - | - |
| 1778014857 | 14.44° C | 86% | 1060 hPa | 0 mm | 0 m/s | - | - |
| 1778013716 | 14.44° C | 86% | 1060 hPa | 0 mm | 0 m/s | - | - |
| 1778012576 | 15° C | 87% | 1060 hPa | 1.02 mm | 0 m/s | - | - |
| 1778011436 | 15° C | 87% | 1060 hPa | 1.52 mm | 0 m/s | - | - |
| 1778010296 | 15° C | 87% | 1060 hPa | 2.03 mm | 0 m/s | - | - |
| 1778009155 | 15° C | 86% | 1060 hPa | 1.02 mm | 0 m/s | - | - |
| 1778008016 | 15.56° C | 85% | 1060 hPa | 0.51 mm | 0 m/s | - | - |
| 1778005737 | 16.67° C | 81% | 1059 hPa | 0 mm | 0 m/s | - | - |
| 1778004597 | 17.22° C | 79% | 1059 hPa | 0 mm | 0 m/s | - | - |
| 1778003459 | 17.78° C | 78% | 1059 hPa | 0 mm | 0 m/s | - | - |
| 1778002315 | 18.33° C | 77% | 1059 hPa | 0 mm | 0 m/s | - | - |
| 1778001175 | 18.89° C | 78% | 1059 hPa | 0 mm | 0 m/s | - | - |
| 1778000035 | 18.89° C | 78% | 1059 hPa | 0 mm | 0 m/s | - | - |
| 1777998896 | 18.89° C | 77% | 1059 hPa | 0 mm | 0 m/s | - | - |
| 1777997756 | 19.44° C | 77% | 1060 hPa | 0 mm | 0 m/s | - | - |
| 1777996616 | 19.44° C | 79% | 1060 hPa | 0 mm | 0 m/s | - | - |
| 1777995478 | 18.89° C | 80% | 1060 hPa | 0 mm | 0 m/s | - | - |
| 1777993196 | 17.78° C | 84% | 1060 hPa | 0.51 mm | 0 m/s | - | - |
| 1777992057 | 17.22° C | 84% | 1060 hPa | 0.51 mm | 0 m/s | - | - |
| 1777989776 | 17.22° C | 83% | 1061 hPa | 0.51 mm | 0 m/s | - | - |
| 1777988636 | 17.22° C | 83% | 1061 hPa | 0.51 mm | 0 m/s | - | - |
| 1777987495 | 16.67° C | 82% | 1061 hPa | 0 mm | 0 m/s | - | - |
* Rain latest hour (hover to see other rain measurements)
** Current wind speed in m/s (hover to see current wind gust speed)